sensor_id;sensor_type;location;lat;lon;timestamp;P1;durP1;ratioP1;P2;durP2;ratioP2
3379;SDS011;1703;51.964;7.642;2023-08-06T00:00:25;25.33;;;12.60;;
3379;SDS011;1703;51.964;7.642;2023-08-06T00:02:52;13.23;;;10.30;;
3379;SDS011;1703;51.964;7.642;2023-08-06T00:05:19;12.70;;;9.60;;
3379;SDS011;1703;51.964;7.642;2023-08-06T00:07:46;16.40;;;10.60;;
3379;SDS011;1703;51.964;7.642;2023-08-06T00:10:15;10.77;;;9.63;;
3379;SDS011;1703;51.964;7.642;2023-08-06T00:12:42;13.13;;;10.30;;
3379;SDS011;1703;51.964;7.642;2023-08-06T00:15:09;16.00;;;10.23;;
3379;SDS011;1703;51.964;7.642;2023-08-06T00:17:36;15.00;;;9.40;;
3379;SDS011;1703;51.964;7.642;2023-08-06T00:20:03;13.30;;;8.93;;
3379;SDS011;1703;51.964;7.642;2023-08-06T00:22:32;11.43;;;9.73;;
3379;SDS011;1703;51.964;7.642;2023-08-06T00:24:59;10.53;;;9.37;;
3379;SDS011;1703;51.964;7.642;2023-08-06T00:27:27;13.37;;;9.93;;
3379;SDS011;1703;51.964;7.642;2023-08-06T00:29:54;10.43;;;9.40;;
3379;SDS011;1703;51.964;7.642;2023-08-06T00:32:21;12.17;;;10.40;;
3379;SDS011;1703;51.964;7.642;2023-08-06T00:34:48;13.97;;;11.23;;
3379;SDS011;1703;51.964;7.642;2023-08-06T00:37:15;10.13;;;8.43;;
3379;SDS011;1703;51.964;7.642;2023-08-06T00:39:42;11.90;;;9.80;;
3379;SDS011;1703;51.964;7.642;2023-08-06T00:42:09;12.00;;;9.00;;
3379;SDS011;1703;51.964;7.642;2023-08-06T00:44:38;12.70;;;10.40;;
3379;SDS011;1703;51.964;7.642;2023-08-06T00:47:07;13.40;;;9.60;;
3379;SDS011;1703;51.964;7.642;2023-08-06T00:49:35;19.93;;;10.33;;
3379;SDS011;1703;51.964;7.642;2023-08-06T00:52:03;10.07;;;9.07;;
3379;SDS011;1703;51.964;7.642;2023-08-06T00:54:31;17.57;;;9.77;;
3379;SDS011;1703;51.964;7.642;2023-08-06T00:57:00;11.00;;;10.00;;
3379;SDS011;1703;51.964;7.642;2023-08-06T00:59:28;11.80;;;10.60;;
3379;SDS011;1703;51.964;7.642;2023-08-06T01:01:57;19.70;;;11.57;;
3379;SDS011;1703;51.964;7.642;2023-08-06T01:04:23;11.10;;;10.00;;
3379;SDS011;1703;51.964;7.642;2023-08-06T01:06:52;13.30;;;10.37;;
3379;SDS011;1703;51.964;7.642;2023-08-06T01:09:31;12.20;;;10.30;;
3379;SDS011;1703;51.964;7.642;2023-08-06T01:12:05;11.30;;;10.17;;
3379;SDS011;1703;51.964;7.642;2023-08-06T01:14:43;11.00;;;9.33;;
3379;SDS011;1703;51.964;7.642;2023-08-06T01:17:18;16.90;;;10.20;;
3379;SDS011;1703;51.964;7.642;2023-08-06T01:19:46;12.53;;;11.13;;
3379;SDS011;1703;51.964;7.642;2023-08-06T01:22:14;12.67;;;10.20;;
3379;SDS011;1703;51.964;7.642;2023-08-06T01:24:41;10.43;;;9.33;;
3379;SDS011;1703;51.964;7.642;2023-08-06T01:27:14;9.60;;;8.60;;
3379;SDS011;1703;51.964;7.642;2023-08-06T01:29:52;12.10;;;9.90;;
3379;SDS011;1703;51.964;7.642;2023-08-06T01:32:29;14.67;;;9.70;;
3379;SDS011;1703;51.964;7.642;2023-08-06T01:34:58;12.70;;;10.10;;
3379;SDS011;1703;51.964;7.642;2023-08-06T01:37:27;17.77;;;9.43;;
3379;SDS011;1703;51.964;7.642;2023-08-06T01:39:55;15.93;;;8.90;;
3379;SDS011;1703;51.964;7.642;2023-08-06T01:42:22;9.17;;;8.30;;
3379;SDS011;1703;51.964;7.642;2023-08-06T01:44:48;10.60;;;8.77;;
3379;SDS011;1703;51.964;7.642;2023-08-06T01:47:15;10.87;;;9.77;;
3379;SDS011;1703;51.964;7.642;2023-08-06T01:49:42;11.60;;;9.03;;
3379;SDS011;1703;51.964;7.642;2023-08-06T01:52:09;9.83;;;8.83;;
3379;SDS011;1703;51.964;7.642;2023-08-06T01:54:37;10.47;;;9.47;;
3379;SDS011;1703;51.964;7.642;2023-08-06T01:57:04;9.03;;;8.10;;
3379;SDS011;1703;51.964;7.642;2023-08-06T01:59:31;12.43;;;7.70;;
3379;SDS011;1703;51.964;7.642;2023-08-06T02:01:58;12.53;;;7.63;;
3379;SDS011;1703;51.964;7.642;2023-08-06T02:04:25;9.47;;;8.50;;
3379;SDS011;1703;51.964;7.642;2023-08-06T02:06:52;12.40;;;8.07;;
3379;SDS011;1703;51.964;7.642;2023-08-06T02:09:19;11.87;;;9.53;;
3379;SDS011;1703;51.964;7.642;2023-08-06T02:11:47;9.60;;;8.60;;
3379;SDS011;1703;51.964;7.642;2023-08-06T02:14:14;12.67;;;9.07;;
3379;SDS011;1703;51.964;7.642;2023-08-06T02:16:41;11.20;;;8.50;;
3379;SDS011;1703;51.964;7.642;2023-08-06T02:19:07;10.40;;;8.63;;
3379;SDS011;1703;51.964;7.642;2023-08-06T02:21:34;11.60;;;9.27;;
3379;SDS011;1703;51.964;7.642;2023-08-06T02:24:01;9.47;;;8.50;;
3379;SDS011;1703;51.964;7.642;2023-08-06T02:26:28;11.33;;;10.13;;
3379;SDS011;1703;51.964;7.642;2023-08-06T02:28:57;11.03;;;8.90;;
3379;SDS011;1703;51.964;7.642;2023-08-06T02:31:24;10.10;;;9.10;;
3379;SDS011;1703;51.964;7.642;2023-08-06T02:33:50;11.43;;;9.20;;
3379;SDS011;1703;51.964;7.642;2023-08-06T02:36:18;9.77;;;8.27;;
3379;SDS011;1703;51.964;7.642;2023-08-06T02:38:45;9.53;;;8.63;;
3379;SDS011;1703;51.964;7.642;2023-08-06T02:41:13;10.00;;;8.30;;
3379;SDS011;1703;51.964;7.642;2023-08-06T02:43:40;26.13;;;9.10;;
3379;SDS011;1703;51.964;7.642;2023-08-06T02:46:08;9.17;;;8.30;;
3379;SDS011;1703;51.964;7.642;2023-08-06T02:48:35;9.83;;;8.83;;
3379;SDS011;1703;51.964;7.642;2023-08-06T02:51:01;9.80;;;8.07;;
3379;SDS011;1703;51.964;7.642;2023-08-06T02:53:30;9.93;;;8.90;;
3379;SDS011;1703;51.964;7.642;2023-08-06T02:56:00;10.50;;;8.63;;
3379;SDS011;1703;51.964;7.642;2023-08-06T02:58:36;10.60;;;7.30;;
3379;SDS011;1703;51.964;7.642;2023-08-06T03:01:21;8.93;;;8.03;;
3379;SDS011;1703;51.964;7.642;2023-08-06T03:03:56;12.57;;;9.80;;
3379;SDS011;1703;51.964;7.642;2023-08-06T03:06:29;10.53;;;8.70;;
3379;SDS011;1703;51.964;7.642;2023-08-06T03:08:58;9.43;;;8.47;;
3379;SDS011;1703;51.964;7.642;2023-08-06T03:11:25;8.43;;;7.60;;
3379;SDS011;1703;51.964;7.642;2023-08-06T03:13:58;7.83;;;7.07;;
3379;SDS011;1703;51.964;7.642;2023-08-06T03:16:27;9.07;;;7.77;;
3379;SDS011;1703;51.964;7.642;2023-08-06T03:18:53;10.53;;;8.60;;
3379;SDS011;1703;51.964;7.642;2023-08-06T03:21:20;11.47;;;8.50;;
3379;SDS011;1703;51.964;7.642;2023-08-06T03:23:47;9.10;;;7.80;;
3379;SDS011;1703;51.964;7.642;2023-08-06T03:26:17;9.13;;;7.60;;
3379;SDS011;1703;51.964;7.642;2023-08-06T03:28:45;13.33;;;8.80;;
3379;SDS011;1703;51.964;7.642;2023-08-06T03:31:13;11.13;;;8.67;;
3379;SDS011;1703;51.964;7.642;2023-08-06T03:33:44;14.27;;;8.73;;
3379;SDS011;1703;51.964;7.642;2023-08-06T03:36:14;8.43;;;7.50;;
3379;SDS011;1703;51.964;7.642;2023-08-06T03:38:42;11.10;;;8.20;;
3379;SDS011;1703;51.964;7.642;2023-08-06T03:41:11;8.70;;;7.90;;
3379;SDS011;1703;51.964;7.642;2023-08-06T03:43:38;17.40;;;7.77;;
3379;SDS011;1703;51.964;7.642;2023-08-06T03:46:09;8.53;;;7.63;;
3379;SDS011;1703;51.964;7.642;2023-08-06T03:48:36;11.10;;;8.13;;
3379;SDS011;1703;51.964;7.642;2023-08-06T03:51:05;9.13;;;8.23;;
3379;SDS011;1703;51.964;7.642;2023-08-06T03:53:31;9.50;;;8.23;;
3379;SDS011;1703;51.964;7.642;2023-08-06T03:55:59;9.13;;;7.57;;
3379;SDS011;1703;51.964;7.642;2023-08-06T03:58:26;20.70;;;9.13;;
3379;SDS011;1703;51.964;7.642;2023-08-06T04:00:58;10.07;;;8.57;;
3379;SDS011;1703;51.964;7.642;2023-08-06T04:03:28;9.73;;;7.47;;
3379;SDS011;1703;51.964;7.642;2023-08-06T04:05:55;16.63;;;9.33;;
3379;SDS011;1703;51.964;7.642;2023-08-06T04:08:23;9.70;;;6.87;;
3379;SDS011;1703;51.964;7.642;2023-08-06T04:10:50;9.37;;;8.30;;
3379;SDS011;1703;51.964;7.642;2023-08-06T04:13:18;8.17;;;7.37;;
3379;SDS011;1703;51.964;7.642;2023-08-06T04:15:45;9.63;;;7.77;;
3379;SDS011;1703;51.964;7.642;2023-08-06T04:18:12;11.20;;;8.20;;
3379;SDS011;1703;51.964;7.642;2023-08-06T04:20:42;9.83;;;8.60;;
3379;SDS011;1703;51.964;7.642;2023-08-06T04:23:09;8.07;;;7.27;;
3379;SDS011;1703;51.964;7.642;2023-08-06T04:25:38;9.50;;;8.40;;
3379;SDS011;1703;51.964;7.642;2023-08-06T04:28:05;19.90;;;7.47;;
3379;SDS011;1703;51.964;7.642;2023-08-06T04:30:33;9.00;;;8.17;;
3379;SDS011;1703;51.964;7.642;2023-08-06T04:33:01;10.57;;;7.90;;
3379;SDS011;1703;51.964;7.642;2023-08-06T04:35:28;9.50;;;7.73;;
3379;SDS011;1703;51.964;7.642;2023-08-06T04:37:55;10.13;;;9.03;;
3379;SDS011;1703;51.964;7.642;2023-08-06T04:40:22;8.97;;;7.47;;
3379;SDS011;1703;51.964;7.642;2023-08-06T04:42:50;7.87;;;7.07;;
3379;SDS011;1703;51.964;7.642;2023-08-06T04:45:19;10.50;;;9.37;;
3379;SDS011;1703;51.964;7.642;2023-08-06T04:47:45;9.40;;;8.33;;
3379;SDS011;1703;51.964;7.642;2023-08-06T04:50:12;11.77;;;7.97;;
3379;SDS011;1703;51.964;7.642;2023-08-06T04:52:39;8.23;;;7.43;;
3379;SDS011;1703;51.964;7.642;2023-08-06T04:55:06;7.93;;;7.17;;
3379;SDS011;1703;51.964;7.642;2023-08-06T04:57:33;11.50;;;8.50;;
3379;SDS011;1703;51.964;7.642;2023-08-06T05:00:01;8.60;;;7.70;;
3379;SDS011;1703;51.964;7.642;2023-08-06T05:02:29;10.23;;;8.80;;
3379;SDS011;1703;51.964;7.642;2023-08-06T05:04:57;10.93;;;8.40;;
3379;SDS011;1703;51.964;7.642;2023-08-06T05:07:24;10.07;;;8.40;;
3379;SDS011;1703;51.964;7.642;2023-08-06T05:09:50;9.90;;;7.73;;
3379;SDS011;1703;51.964;7.642;2023-08-06T05:12:17;8.70;;;6.67;;
3379;SDS011;1703;51.964;7.642;2023-08-06T05:14:44;17.97;;;8.60;;
3379;SDS011;1703;51.964;7.642;2023-08-06T05:17:12;8.63;;;6.73;;
3379;SDS011;1703;51.964;7.642;2023-08-06T05:19:39;8.40;;;7.60;;
3379;SDS011;1703;51.964;7.642;2023-08-06T05:22:06;9.47;;;8.03;;
3379;SDS011;1703;51.964;7.642;2023-08-06T05:24:32;9.60;;;6.30;;
3379;SDS011;1703;51.964;7.642;2023-08-06T05:26:59;11.47;;;7.40;;
3379;SDS011;1703;51.964;7.642;2023-08-06T05:29:26;9.40;;;6.50;;
3379;SDS011;1703;51.964;7.642;2023-08-06T05:31:53;7.83;;;6.13;;
3379;SDS011;1703;51.964;7.642;2023-08-06T05:34:21;12.57;;;7.37;;
3379;SDS011;1703;51.964;7.642;2023-08-06T05:36:48;7.80;;;6.60;;
3379;SDS011;1703;51.964;7.642;2023-08-06T05:39:14;10.60;;;6.50;;
3379;SDS011;1703;51.964;7.642;2023-08-06T05:41:41;10.43;;;7.43;;
3379;SDS011;1703;51.964;7.642;2023-08-06T05:44:08;8.47;;;7.67;;
3379;SDS011;1703;51.964;7.642;2023-08-06T05:46:35;11.43;;;7.60;;
3379;SDS011;1703;51.964;7.642;2023-08-06T05:49:02;8.73;;;7.77;;
3379;SDS011;1703;51.964;7.642;2023-08-06T05:51:30;16.87;;;7.33;;
3379;SDS011;1703;51.964;7.642;2023-08-06T05:53:57;9.93;;;6.60;;
3379;SDS011;1703;51.964;7.642;2023-08-06T05:56:23;7.73;;;6.93;;
3379;SDS011;1703;51.964;7.642;2023-08-06T05:58:50;6.80;;;6.20;;
3379;SDS011;1703;51.964;7.642;2023-08-06T06:01:18;7.20;;;6.60;;
3379;SDS011;1703;51.964;7.642;2023-08-06T06:03:45;8.07;;;6.53;;
3379;SDS011;1703;51.964;7.642;2023-08-06T06:06:12;8.37;;;7.40;;
3379;SDS011;1703;51.964;7.642;2023-08-06T06:08:40;11.30;;;7.20;;
3379;SDS011;1703;51.964;7.642;2023-08-06T06:11:07;7.43;;;6.70;;
3379;SDS011;1703;51.964;7.642;2023-08-06T06:13:33;9.70;;;6.63;;
3379;SDS011;1703;51.964;7.642;2023-08-06T06:16:00;9.60;;;7.60;;
3379;SDS011;1703;51.964;7.642;2023-08-06T06:18:27;7.30;;;6.20;;
3379;SDS011;1703;51.964;7.642;2023-08-06T06:20:54;7.13;;;6.33;;
3379;SDS011;1703;51.964;7.642;2023-08-06T06:23:20;11.13;;;6.33;;
3379;SDS011;1703;51.964;7.642;2023-08-06T06:25:49;11.43;;;6.20;;
3379;SDS011;1703;51.964;7.642;2023-08-06T06:28:16;8.77;;;6.07;;
3379;SDS011;1703;51.964;7.642;2023-08-06T06:30:43;7.30;;;6.70;;
3379;SDS011;1703;51.964;7.642;2023-08-06T06:33:10;6.60;;;6.00;;
3379;SDS011;1703;51.964;7.642;2023-08-06T06:35:37;7.20;;;6.50;;
3379;SDS011;1703;51.964;7.642;2023-08-06T06:38:04;10.80;;;6.80;;
3379;SDS011;1703;51.964;7.642;2023-08-06T06:40:30;6.63;;;6.13;;
3379;SDS011;1703;51.964;7.642;2023-08-06T06:42:59;7.80;;;6.23;;
3379;SDS011;1703;51.964;7.642;2023-08-06T06:45:26;13.47;;;5.80;;
3379;SDS011;1703;51.964;7.642;2023-08-06T06:47:53;8.97;;;6.33;;
3379;SDS011;1703;51.964;7.642;2023-08-06T06:50:19;7.53;;;6.53;;
3379;SDS011;1703;51.964;7.642;2023-08-06T06:52:46;7.30;;;5.23;;
3379;SDS011;1703;51.964;7.642;2023-08-06T06:55:13;8.23;;;7.20;;
3379;SDS011;1703;51.964;7.642;2023-08-06T06:57:40;8.00;;;7.10;;
3379;SDS011;1703;51.964;7.642;2023-08-06T07:00:08;8.80;;;6.20;;
3379;SDS011;1703;51.964;7.642;2023-08-06T07:02:36;8.73;;;6.87;;
3379;SDS011;1703;51.964;7.642;2023-08-06T07:05:04;9.00;;;7.77;;
3379;SDS011;1703;51.964;7.642;2023-08-06T07:07:32;7.03;;;6.33;;
3379;SDS011;1703;51.964;7.642;2023-08-06T07:09:59;8.47;;;6.47;;
3379;SDS011;1703;51.964;7.642;2023-08-06T07:12:26;7.43;;;6.10;;
3379;SDS011;1703;51.964;7.642;2023-08-06T07:14:52;10.97;;;6.30;;
3379;SDS011;1703;51.964;7.642;2023-08-06T07:17:20;8.97;;;5.87;;
3379;SDS011;1703;51.964;7.642;2023-08-06T07:19:47;7.30;;;6.20;;
3379;SDS011;1703;51.964;7.642;2023-08-06T07:22:14;6.93;;;6.10;;
3379;SDS011;1703;51.964;7.642;2023-08-06T07:24:41;6.33;;;5.43;;
3379;SDS011;1703;51.964;7.642;2023-08-06T07:27:08;6.10;;;5.50;;
3379;SDS011;1703;51.964;7.642;2023-08-06T07:29:34;7.23;;;6.00;;
3379;SDS011;1703;51.964;7.642;2023-08-06T07:32:01;5.10;;;4.60;;
3379;SDS011;1703;51.964;7.642;2023-08-06T07:34:30;6.13;;;5.53;;
3379;SDS011;1703;51.964;7.642;2023-08-06T07:36:56;7.93;;;5.40;;
3379;SDS011;1703;51.964;7.642;2023-08-06T07:39:23;8.80;;;6.07;;
3379;SDS011;1703;51.964;7.642;2023-08-06T07:41:50;6.23;;;5.63;;
3379;SDS011;1703;51.964;7.642;2023-08-06T07:44:17;7.60;;;5.53;;
3379;SDS011;1703;51.964;7.642;2023-08-06T07:46:43;9.50;;;6.57;;
3379;SDS011;1703;51.964;7.642;2023-08-06T07:49:10;5.90;;;5.40;;
3379;SDS011;1703;51.964;7.642;2023-08-06T07:51:38;5.90;;;5.43;;
3379;SDS011;1703;51.964;7.642;2023-08-06T07:54:05;8.53;;;5.40;;
3379;SDS011;1703;51.964;7.642;2023-08-06T07:56:32;11.20;;;5.40;;
3379;SDS011;1703;51.964;7.642;2023-08-06T07:59:01;4.83;;;4.03;;
3379;SDS011;1703;51.964;7.642;2023-08-06T08:01:27;4.70;;;4.30;;
3379;SDS011;1703;51.964;7.642;2023-08-06T08:03:54;5.53;;;5.00;;
3379;SDS011;1703;51.964;7.642;2023-08-06T08:06:21;5.60;;;4.10;;
3379;SDS011;1703;51.964;7.642;2023-08-06T08:08:49;4.53;;;4.13;;
3379;SDS011;1703;51.964;7.642;2023-08-06T08:11:17;4.60;;;2.77;;
3379;SDS011;1703;51.964;7.642;2023-08-06T08:13:43;3.27;;;2.27;;
3379;SDS011;1703;51.964;7.642;2023-08-06T08:16:10;4.53;;;2.80;;
3379;SDS011;1703;51.964;7.642;2023-08-06T08:18:37;3.13;;;2.63;;
3379;SDS011;1703;51.964;7.642;2023-08-06T08:21:04;3.17;;;2.97;;
3379;SDS011;1703;51.964;7.642;2023-08-06T08:23:31;3.03;;;2.73;;
3379;SDS011;1703;51.964;7.642;2023-08-06T08:25:59;4.03;;;2.67;;
3379;SDS011;1703;51.964;7.642;2023-08-06T08:28:27;3.57;;;2.63;;
3379;SDS011;1703;51.964;7.642;2023-08-06T08:30:54;2.73;;;2.53;;
3379;SDS011;1703;51.964;7.642;2023-08-06T08:33:21;5.00;;;2.83;;
3379;SDS011;1703;51.964;7.642;2023-08-06T08:35:48;3.27;;;2.43;;
3379;SDS011;1703;51.964;7.642;2023-08-06T08:38:15;4.03;;;2.77;;
3379;SDS011;1703;51.964;7.642;2023-08-06T08:40:43;2.80;;;2.43;;
3379;SDS011;1703;51.964;7.642;2023-08-06T08:43:14;6.60;;;3.47;;
3379;SDS011;1703;51.964;7.642;2023-08-06T08:45:42;3.20;;;2.90;;
3379;SDS011;1703;51.964;7.642;2023-08-06T08:48:10;3.03;;;2.53;;
3379;SDS011;1703;51.964;7.642;2023-08-06T08:50:39;3.50;;;3.20;;
3379;SDS011;1703;51.964;7.642;2023-08-06T08:53:07;2.40;;;2.27;;
3379;SDS011;1703;51.964;7.642;2023-08-06T08:55:37;3.30;;;3.00;;
3379;SDS011;1703;51.964;7.642;2023-08-06T08:58:05;3.63;;;2.57;;
3379;SDS011;1703;51.964;7.642;2023-08-06T09:00:33;3.23;;;2.93;;
3379;SDS011;1703;51.964;7.642;2023-08-06T09:03:00;2.77;;;2.57;;
3379;SDS011;1703;51.964;7.642;2023-08-06T09:05:29;2.77;;;2.40;;
3379;SDS011;1703;51.964;7.642;2023-08-06T09:07:57;3.20;;;2.53;;
3379;SDS011;1703;51.964;7.642;2023-08-06T09:10:28;3.07;;;2.77;;
3379;SDS011;1703;51.964;7.642;2023-08-06T09:12:55;4.60;;;3.30;;
3379;SDS011;1703;51.964;7.642;2023-08-06T09:15:23;3.90;;;3.10;;
3379;SDS011;1703;51.964;7.642;2023-08-06T09:17:52;5.80;;;2.93;;
3379;SDS011;1703;51.964;7.642;2023-08-06T09:20:20;13.03;;;3.00;;
3379;SDS011;1703;51.964;7.642;2023-08-06T09:22:47;2.63;;;2.43;;
3379;SDS011;1703;51.964;7.642;2023-08-06T09:25:16;3.50;;;2.20;;
3379;SDS011;1703;51.964;7.642;2023-08-06T09:27:48;3.47;;;3.17;;
3379;SDS011;1703;51.964;7.642;2023-08-06T09:30:28;4.97;;;3.20;;
3379;SDS011;1703;51.964;7.642;2023-08-06T09:32:58;3.67;;;2.17;;
3379;SDS011;1703;51.964;7.642;2023-08-06T09:35:25;2.73;;;2.53;;
3379;SDS011;1703;51.964;7.642;2023-08-06T09:37:54;2.97;;;2.73;;
3379;SDS011;1703;51.964;7.642;2023-08-06T09:40:24;4.67;;;2.53;;
3379;SDS011;1703;51.964;7.642;2023-08-06T09:42:52;2.63;;;2.43;;
3379;SDS011;1703;51.964;7.642;2023-08-06T09:45:18;2.30;;;2.20;;
3379;SDS011;1703;51.964;7.642;2023-08-06T09:47:47;5.67;;;2.07;;
3379;SDS011;1703;51.964;7.642;2023-08-06T09:50:18;2.13;;;2.03;;
3379;SDS011;1703;51.964;7.642;2023-08-06T09:52:46;2.70;;;2.50;;
3379;SDS011;1703;51.964;7.642;2023-08-06T09:55:14;5.00;;;2.47;;
3379;SDS011;1703;51.964;7.642;2023-08-06T09:57:41;2.87;;;2.37;;
3379;SDS011;1703;51.964;7.642;2023-08-06T10:00:09;2.70;;;2.50;;
3379;SDS011;1703;51.964;7.642;2023-08-06T10:02:40;3.13;;;2.90;;
3379;SDS011;1703;51.964;7.642;2023-08-06T10:05:07;2.63;;;2.40;;
3379;SDS011;1703;51.964;7.642;2023-08-06T10:07:36;3.13;;;2.70;;
3379;SDS011;1703;51.964;7.642;2023-08-06T10:10:05;2.53;;;2.33;;
3379;SDS011;1703;51.964;7.642;2023-08-06T10:12:34;4.00;;;2.60;;
3379;SDS011;1703;51.964;7.642;2023-08-06T10:15:04;2.40;;;1.87;;
3379;SDS011;1703;51.964;7.642;2023-08-06T10:17:35;2.50;;;2.30;;
3379;SDS011;1703;51.964;7.642;2023-08-06T10:20:03;2.27;;;2.07;;
3379;SDS011;1703;51.964;7.642;2023-08-06T10:22:32;2.53;;;2.07;;
3379;SDS011;1703;51.964;7.642;2023-08-06T10:25:06;3.10;;;2.50;;
3379;SDS011;1703;51.964;7.642;2023-08-06T10:27:34;3.00;;;2.80;;
3379;SDS011;1703;51.964;7.642;2023-08-06T10:30:21;2.40;;;1.70;;
3379;SDS011;1703;51.964;7.642;2023-08-06T10:32:49;3.33;;;2.30;;
3379;SDS011;1703;51.964;7.642;2023-08-06T10:35:30;2.47;;;2.30;;
3379;SDS011;1703;51.964;7.642;2023-08-06T10:38:04;2.50;;;2.30;;
3379;SDS011;1703;51.964;7.642;2023-08-06T10:40:34;2.33;;;2.13;;
3379;SDS011;1703;51.964;7.642;2023-08-06T10:43:02;2.50;;;2.30;;
3379;SDS011;1703;51.964;7.642;2023-08-06T10:45:33;2.87;;;2.60;;
3379;SDS011;1703;51.964;7.642;2023-08-06T10:48:00;5.03;;;2.20;;
3379;SDS011;1703;51.964;7.642;2023-08-06T10:50:27;2.60;;;1.93;;
3379;SDS011;1703;51.964;7.642;2023-08-06T10:52:56;3.43;;;2.37;;
3379;SDS011;1703;51.964;7.642;2023-08-06T10:55:23;2.40;;;2.20;;
3379;SDS011;1703;51.964;7.642;2023-08-06T10:57:53;2.67;;;2.47;;
3379;SDS011;1703;51.964;7.642;2023-08-06T11:00:20;2.23;;;2.13;;
3379;SDS011;1703;51.964;7.642;2023-08-06T11:02:48;6.47;;;2.70;;
3379;SDS011;1703;51.964;7.642;2023-08-06T11:05:15;2.40;;;2.20;;
3379;SDS011;1703;51.964;7.642;2023-08-06T11:07:43;1.83;;;1.73;;
3379;SDS011;1703;51.964;7.642;2023-08-06T11:10:10;4.03;;;2.30;;
3379;SDS011;1703;51.964;7.642;2023-08-06T11:12:38;1.73;;;1.63;;
3379;SDS011;1703;51.964;7.642;2023-08-06T11:15:07;1.77;;;1.60;;
3379;SDS011;1703;51.964;7.642;2023-08-06T11:17:35;4.03;;;2.60;;
3379;SDS011;1703;51.964;7.642;2023-08-06T11:20:03;2.10;;;2.00;;
3379;SDS011;1703;51.964;7.642;2023-08-06T11:22:31;3.47;;;2.10;;
3379;SDS011;1703;51.964;7.642;2023-08-06T11:24:58;11.70;;;3.17;;
3379;SDS011;1703;51.964;7.642;2023-08-06T11:27:26;2.30;;;2.20;;
3379;SDS011;1703;51.964;7.642;2023-08-06T11:29:54;2.20;;;2.03;;
3379;SDS011;1703;51.964;7.642;2023-08-06T11:32:22;2.10;;;2.00;;
3379;SDS011;1703;51.964;7.642;2023-08-06T11:34:49;2.70;;;2.43;;
3379;SDS011;1703;51.964;7.642;2023-08-06T11:37:16;2.33;;;2.03;;
3379;SDS011;1703;51.964;7.642;2023-08-06T11:39:48;4.37;;;3.00;;
3379;SDS011;1703;51.964;7.642;2023-08-06T11:42:15;1.57;;;1.47;;
3379;SDS011;1703;51.964;7.642;2023-08-06T11:44:42;7.03;;;1.63;;
3379;SDS011;1703;51.964;7.642;2023-08-06T11:47:12;3.67;;;1.70;;
3379;SDS011;1703;51.964;7.642;2023-08-06T11:49:42;4.50;;;2.20;;
3379;SDS011;1703;51.964;7.642;2023-08-06T11:52:12;4.10;;;2.10;;
3379;SDS011;1703;51.964;7.642;2023-08-06T11:54:41;2.33;;;2.13;;
3379;SDS011;1703;51.964;7.642;2023-08-06T11:57:08;3.10;;;2.90;;
3379;SDS011;1703;51.964;7.642;2023-08-06T11:59:37;2.70;;;2.50;;
3379;SDS011;1703;51.964;7.642;2023-08-06T12:02:04;3.37;;;2.40;;
3379;SDS011;1703;51.964;7.642;2023-08-06T12:07:30;2.70;;;2.50;;
3379;SDS011;1703;51.964;7.642;2023-08-06T12:09:58;3.00;;;2.63;;
3379;SDS011;1703;51.964;7.642;2023-08-06T12:12:25;3.30;;;3.00;;
3379;SDS011;1703;51.964;7.642;2023-08-06T12:14:51;8.73;;;3.60;;
3379;SDS011;1703;51.964;7.642;2023-08-06T12:17:18;3.10;;;2.83;;
3379;SDS011;1703;51.964;7.642;2023-08-06T12:19:45;3.40;;;3.20;;
3379;SDS011;1703;51.964;7.642;2023-08-06T12:22:14;5.67;;;2.90;;
3379;SDS011;1703;51.964;7.642;2023-08-06T12:24:42;5.50;;;3.57;;
3379;SDS011;1703;51.964;7.642;2023-08-06T12:27:10;3.00;;;2.80;;
3379;SDS011;1703;51.964;7.642;2023-08-06T12:29:37;3.17;;;2.67;;
3379;SDS011;1703;51.964;7.642;2023-08-06T12:32:06;5.03;;;3.67;;
3379;SDS011;1703;51.964;7.642;2023-08-06T12:34:33;5.00;;;3.60;;
3379;SDS011;1703;51.964;7.642;2023-08-06T12:37:00;3.50;;;2.80;;
3379;SDS011;1703;51.964;7.642;2023-08-06T12:39:29;3.40;;;3.17;;
3379;SDS011;1703;51.964;7.642;2023-08-06T12:41:56;3.40;;;3.20;;
3379;SDS011;1703;51.964;7.642;2023-08-06T12:44:23;3.33;;;3.13;;
3379;SDS011;1703;51.964;7.642;2023-08-06T12:46:50;2.43;;;2.23;;
3379;SDS011;1703;51.964;7.642;2023-08-06T12:49:17;3.27;;;2.83;;
3379;SDS011;1703;51.964;7.642;2023-08-06T12:51:46;3.60;;;2.70;;
3379;SDS011;1703;51.964;7.642;2023-08-06T12:54:13;3.03;;;2.70;;
3379;SDS011;1703;51.964;7.642;2023-08-06T12:56:41;5.27;;;2.60;;
3379;SDS011;1703;51.964;7.642;2023-08-06T12:59:08;3.87;;;2.80;;
3379;SDS011;1703;51.964;7.642;2023-08-06T13:01:34;3.90;;;3.30;;
3379;SDS011;1703;51.964;7.642;2023-08-06T13:04:03;5.13;;;2.80;;
3379;SDS011;1703;51.964;7.642;2023-08-06T13:06:30;3.60;;;2.40;;
3379;SDS011;1703;51.964;7.642;2023-08-06T13:09:01;2.93;;;2.63;;
3379;SDS011;1703;51.964;7.642;2023-08-06T13:11:28;2.00;;;1.90;;
3379;SDS011;1703;51.964;7.642;2023-08-06T13:13:58;3.80;;;2.60;;
3379;SDS011;1703;51.964;7.642;2023-08-06T13:16:29;2.07;;;1.97;;
3379;SDS011;1703;51.964;7.642;2023-08-06T13:18:56;2.97;;;2.53;;
3379;SDS011;1703;51.964;7.642;2023-08-06T13:21:23;10.97;;;2.70;;
3379;SDS011;1703;51.964;7.642;2023-08-06T13:23:50;2.67;;;2.47;;
3379;SDS011;1703;51.964;7.642;2023-08-06T13:26:17;2.70;;;2.50;;
3379;SDS011;1703;51.964;7.642;2023-08-06T13:28:44;3.00;;;2.70;;
3379;SDS011;1703;51.964;7.642;2023-08-06T13:31:12;3.97;;;3.57;;
3379;SDS011;1703;51.964;7.642;2023-08-06T13:33:38;5.47;;;2.77;;
3379;SDS011;1703;51.964;7.642;2023-08-06T13:36:06;3.80;;;3.10;;
3379;SDS011;1703;51.964;7.642;2023-08-06T13:38:33;2.80;;;2.60;;
3379;SDS011;1703;51.964;7.642;2023-08-06T13:41:00;3.60;;;2.20;;
3379;SDS011;1703;51.964;7.642;2023-08-06T13:43:27;4.80;;;2.37;;
3379;SDS011;1703;51.964;7.642;2023-08-06T13:45:54;2.53;;;2.33;;
3379;SDS011;1703;51.964;7.642;2023-08-06T13:48:22;3.30;;;2.40;;
3379;SDS011;1703;51.964;7.642;2023-08-06T13:50:49;2.33;;;2.17;;
3379;SDS011;1703;51.964;7.642;2023-08-06T13:53:16;2.20;;;2.10;;
3379;SDS011;1703;51.964;7.642;2023-08-06T13:55:43;5.27;;;2.50;;
3379;SDS011;1703;51.964;7.642;2023-08-06T13:58:10;2.87;;;2.40;;
3379;SDS011;1703;51.964;7.642;2023-08-06T14:00:37;3.80;;;3.40;;
3379;SDS011;1703;51.964;7.642;2023-08-06T14:03:03;2.97;;;2.70;;
3379;SDS011;1703;51.964;7.642;2023-08-06T14:05:32;3.00;;;2.70;;
3379;SDS011;1703;51.964;7.642;2023-08-06T14:07:59;2.80;;;2.60;;
3379;SDS011;1703;51.964;7.642;2023-08-06T14:10:26;6.27;;;3.17;;
3379;SDS011;1703;51.964;7.642;2023-08-06T14:12:53;5.10;;;3.40;;
3379;SDS011;1703;51.964;7.642;2023-08-06T14:15:20;3.33;;;3.13;;
3379;SDS011;1703;51.964;7.642;2023-08-06T14:17:46;2.73;;;2.27;;
3379;SDS011;1703;51.964;7.642;2023-08-06T14:20:15;2.50;;;2.30;;
3379;SDS011;1703;51.964;7.642;2023-08-06T14:22:43;2.37;;;2.17;;
3379;SDS011;1703;51.964;7.642;2023-08-06T14:25:10;1.63;;;1.53;;
3379;SDS011;1703;51.964;7.642;2023-08-06T14:27:36;3.33;;;2.20;;
3379;SDS011;1703;51.964;7.642;2023-08-06T14:30:04;3.73;;;2.90;;
3379;SDS011;1703;51.964;7.642;2023-08-06T14:32:32;2.57;;;2.33;;
3379;SDS011;1703;51.964;7.642;2023-08-06T14:35:00;3.10;;;2.73;;
3379;SDS011;1703;51.964;7.642;2023-08-06T14:37:26;5.70;;;2.60;;
3379;SDS011;1703;51.964;7.642;2023-08-06T14:39:55;2.20;;;1.83;;
3379;SDS011;1703;51.964;7.642;2023-08-06T14:42:21;5.00;;;2.33;;
3379;SDS011;1703;51.964;7.642;2023-08-06T14:44:48;2.50;;;2.17;;
3379;SDS011;1703;51.964;7.642;2023-08-06T14:47:16;4.97;;;3.27;;
3379;SDS011;1703;51.964;7.642;2023-08-06T14:49:42;4.80;;;2.97;;
3379;SDS011;1703;51.964;7.642;2023-08-06T14:52:09;2.87;;;2.67;;
3379;SDS011;1703;51.964;7.642;2023-08-06T14:54:36;6.37;;;3.50;;
3379;SDS011;1703;51.964;7.642;2023-08-06T14:57:05;5.10;;;3.07;;
3379;SDS011;1703;51.964;7.642;2023-08-06T14:59:33;3.03;;;2.77;;
3379;SDS011;1703;51.964;7.642;2023-08-06T15:02:00;3.03;;;2.80;;
3379;SDS011;1703;51.964;7.642;2023-08-06T15:04:28;2.23;;;2.13;;
3379;SDS011;1703;51.964;7.642;2023-08-06T15:06:58;3.43;;;2.10;;
3379;SDS011;1703;51.964;7.642;2023-08-06T15:09:25;5.30;;;2.13;;
3379;SDS011;1703;51.964;7.642;2023-08-06T15:11:52;3.53;;;1.90;;
3379;SDS011;1703;51.964;7.642;2023-08-06T15:14:20;2.03;;;1.83;;
3379;SDS011;1703;51.964;7.642;2023-08-06T15:16:47;2.83;;;1.97;;